createdAt,value
2022-12-17T00:02:32.276Z,50.55
2022-12-17T00:05:17.627Z,56.03
2022-12-17T00:08:02.983Z,56.15
2022-12-17T00:10:47.810Z,53.00
2022-12-17T00:13:40.937Z,55.50
2022-12-17T00:16:28.207Z,51.00
2022-12-17T00:19:13.713Z,48.30
2022-12-17T00:21:58.526Z,58.22
2022-12-17T00:24:43.810Z,50.85
2022-12-17T00:27:28.907Z,52.65
2022-12-17T00:30:16.306Z,50.88
2022-12-17T00:33:01.770Z,54.53
2022-12-17T00:35:46.875Z,57.10
2022-12-17T00:38:38.429Z,61.03
2022-12-17T00:41:23.585Z,55.10
2022-12-17T00:44:08.522Z,57.55
2022-12-17T00:46:53.491Z,49.30
2022-12-17T00:49:38.382Z,58.25
2022-12-17T00:52:25.710Z,50.90
2022-12-17T00:55:14.233Z,52.17
2022-12-17T00:57:59.195Z,47.35
2022-12-17T01:00:46.890Z,45.33
2022-12-17T01:03:39.785Z,45.95
2022-12-17T01:06:25.451Z,45.30
2022-12-17T01:09:12.896Z,43.47
2022-12-17T01:11:58.322Z,44.88
2022-12-17T01:14:44.678Z,44.88
2022-12-17T01:17:30.693Z,50.67
2022-12-17T01:20:16.437Z,48.00
2022-12-17T01:23:04.292Z,52.85
2022-12-17T01:25:49.359Z,52.67
2022-12-17T01:28:40.781Z,50.80
2022-12-17T01:31:29.159Z,54.03
2022-12-17T01:34:17.892Z,50.67
2022-12-17T01:37:03.126Z,53.83
2022-12-17T01:39:47.872Z,52.10
2022-12-17T01:42:33.373Z,53.65
2022-12-17T01:45:18.465Z,51.42
2022-12-17T01:48:08.890Z,57.95
2022-12-17T01:50:57.517Z,54.75
2022-12-17T01:53:49.959Z,52.47
2022-12-17T01:56:52.915Z,53.08
2022-12-17T01:59:54.102Z,51.97
2022-12-17T02:02:39.616Z,51.08
2022-12-17T02:05:25.295Z,48.00
2022-12-17T02:08:36.938Z,52.20
2022-12-17T02:11:34.222Z,46.63
2022-12-17T02:14:40.766Z,48.33
2022-12-17T02:17:30.666Z,49.47
2022-12-17T02:20:48.603Z,48.33
2022-12-17T02:23:51.876Z,46.95
2022-12-17T02:26:54.842Z,55.08
2022-12-17T02:29:42.748Z,49.03
2022-12-17T02:32:30.860Z,45.50
2022-12-17T02:35:19.700Z,49.13
2022-12-17T02:38:11.542Z,51.75
2022-12-17T02:40:57.437Z,47.78
2022-12-17T02:43:45.538Z,49.92
2022-12-17T02:46:31.147Z,49.97
2022-12-17T02:49:16.563Z,46.38
2022-12-17T02:52:02.059Z,49.15
2022-12-17T02:54:53.017Z,57.17
2022-12-17T02:57:43.605Z,54.22
2022-12-17T03:00:29.639Z,55.85
2022-12-17T03:03:14.875Z,57.20
2022-12-17T03:05:59.773Z,57.88
2022-12-17T03:08:44.836Z,57.22
2022-12-17T03:11:29.782Z,65.28
2022-12-17T03:14:17.898Z,54.30
2022-12-17T03:17:03.121Z,53.03
2022-12-17T03:19:48.489Z,57.25
2022-12-17T03:22:33.911Z,53.13
2022-12-17T03:25:18.850Z,55.67
2022-12-17T03:28:03.622Z,52.42
2022-12-17T03:30:49.331Z,53.83
2022-12-17T03:33:34.648Z,56.97
2022-12-17T03:36:19.694Z,53.78
2022-12-17T03:39:04.487Z,53.90
2022-12-17T03:41:51.277Z,51.08
2022-12-17T03:44:36.209Z,55.95
2022-12-17T03:47:23.564Z,51.67
2022-12-17T03:50:08.520Z,46.38
2022-12-17T03:52:53.380Z,52.33
2022-12-17T03:55:38.315Z,49.65
2022-12-17T03:58:23.146Z,47.90
2022-12-17T04:01:08.009Z,51.33
2022-12-17T04:03:53.221Z,45.88
2022-12-17T04:06:38.019Z,48.08
2022-12-17T04:09:23.355Z,47.00
2022-12-17T04:12:08.133Z,41.47
2022-12-17T04:14:52.960Z,43.83
2022-12-17T04:17:37.753Z,44.92
2022-12-17T04:20:23.622Z,42.15
2022-12-17T04:23:08.753Z,45.70
2022-12-17T04:25:53.622Z,48.85
2022-12-17T04:28:38.494Z,50.13
2022-12-17T04:31:23.723Z,44.60
2022-12-17T04:34:28.199Z,49.22
2022-12-17T04:37:13.645Z,51.47
2022-12-17T04:39:58.232Z,50.85
2022-12-17T04:42:43.156Z,50.20
2022-12-17T04:45:28.388Z,49.38
2022-12-17T04:48:25.447Z,47.90
2022-12-17T04:51:11.309Z,49.28
2022-12-17T04:53:56.125Z,47.05
2022-12-17T04:56:41.608Z,49.28
2022-12-17T04:59:26.331Z,48.08
2022-12-17T05:02:11.332Z,48.60
2022-12-17T05:04:56.648Z,48.97
2022-12-17T05:08:01.408Z,45.13
2022-12-17T05:10:46.086Z,48.78
2022-12-17T05:13:31.395Z,49.90
2022-12-17T05:16:16.910Z,45.30
2022-12-17T05:19:02.324Z,51.20
2022-12-17T05:21:47.192Z,51.20
2022-12-17T05:24:34.532Z,44.90
2022-12-17T05:27:19.436Z,45.97
2022-12-17T05:30:04.213Z,46.53
2022-12-17T05:32:51.573Z,47.05
2022-12-17T05:35:36.478Z,49.70
2022-12-17T05:38:26.541Z,47.65
2022-12-17T05:41:18.588Z,53.58
2022-12-17T05:44:05.854Z,46.90
2022-12-17T05:46:50.858Z,49.45
2022-12-17T05:49:35.676Z,46.47
2022-12-17T05:52:22.955Z,46.97
2022-12-17T05:55:08.440Z,47.63
2022-12-17T05:57:56.564Z,47.80
2022-12-17T06:00:41.724Z,49.03
2022-12-17T06:03:27.747Z,42.72
2022-12-17T06:06:32.599Z,44.03
2022-12-17T06:09:17.532Z,48.33
2022-12-17T06:12:02.945Z,44.25
2022-12-17T06:14:47.882Z,44.33
2022-12-17T06:17:35.471Z,50.35
2022-12-17T06:20:20.685Z,46.03
2022-12-17T06:23:17.206Z,44.92
2022-12-17T06:26:01.975Z,43.67
2022-12-17T06:28:47.494Z,43.40
2022-12-17T06:31:32.722Z,49.22
2022-12-17T06:34:27.963Z,47.63
2022-12-17T06:37:12.747Z,51.65
2022-12-17T06:39:57.711Z,45.63
2022-12-17T06:42:42.475Z,45.58
2022-12-17T06:45:28.073Z,48.20
2022-12-17T06:48:21.049Z,55.20
2022-12-17T06:51:06.486Z,62.03
2022-12-17T06:53:51.303Z,54.45
2022-12-17T06:56:36.515Z,47.30
2022-12-17T06:59:21.254Z,47.00
2022-12-17T07:02:26.394Z,43.42
2022-12-17T07:05:11.505Z,46.08
2022-12-17T07:07:56.468Z,47.17
2022-12-17T07:10:42.323Z,48.38
2022-12-17T07:13:28.765Z,48.97
2022-12-17T07:16:27.849Z,47.42
2022-12-17T07:19:13.046Z,51.38
2022-12-17T07:21:57.917Z,45.45
2022-12-17T07:24:43.390Z,46.17
2022-12-17T07:27:28.174Z,44.30
2022-12-17T07:30:15.410Z,48.22
2022-12-17T07:33:00.389Z,47.47
2022-12-17T07:35:47.137Z,48.40
2022-12-17T07:38:32.048Z,46.70
2022-12-17T07:41:20.096Z,45.90
2022-12-17T07:44:05.338Z,46.05
2022-12-17T07:46:50.175Z,44.80
2022-12-17T07:49:35.153Z,47.00
2022-12-17T07:52:20.233Z,49.10
2022-12-17T07:55:05.119Z,49.85
2022-12-17T07:57:50.130Z,50.80
2022-12-17T08:00:35.514Z,47.08
2022-12-17T08:03:20.828Z,49.17
2022-12-17T08:06:05.984Z,51.50
2022-12-17T08:08:56.020Z,46.00
2022-12-17T08:11:40.848Z,51.03
2022-12-17T08:14:25.786Z,54.53
2022-12-17T08:17:10.532Z,47.20
2022-12-17T08:19:55.409Z,46.90
2022-12-17T08:22:40.054Z,44.95
2022-12-17T08:25:25.554Z,45.28
2022-12-17T08:28:48.942Z,47.72
2022-12-17T08:31:25.757Z,47.25
2022-12-17T08:34:10.959Z,44.92
2022-12-17T08:36:55.697Z,48.35
2022-12-17T08:39:43.055Z,42.95
2022-12-17T08:42:27.800Z,45.97
2022-12-17T08:45:12.686Z,46.15
2022-12-17T08:48:02.180Z,49.03
2022-12-17T08:50:48.987Z,49.20
2022-12-17T08:53:35.203Z,48.53
2022-12-17T08:56:20.864Z,55.17
2022-12-17T08:59:05.654Z,77.85
2022-12-17T09:01:50.715Z,54.50
2022-12-17T09:04:35.791Z,48.08
2022-12-17T09:07:20.662Z,49.35
2022-12-17T09:10:05.492Z,54.63
2022-12-17T09:12:50.462Z,46.28
2022-12-17T09:15:36.009Z,48.55
2022-12-17T09:18:20.728Z,46.40
2022-12-17T09:21:12.118Z,48.00
2022-12-17T09:23:56.958Z,48.85
2022-12-17T09:26:42.247Z,48.70
2022-12-17T09:29:27.082Z,45.28
2022-12-17T09:32:11.972Z,47.45
2022-12-17T09:34:56.900Z,48.42
2022-12-17T09:37:41.719Z,45.22
2022-12-17T09:40:34.433Z,50.53
2022-12-17T09:43:26.758Z,43.80
2022-12-17T09:46:19.359Z,40.15
2022-12-17T09:49:17.709Z,44.70
2022-12-17T09:52:02.677Z,45.85
2022-12-17T09:55:02.186Z,51.22
2022-12-17T09:57:51.864Z,48.13
2022-12-17T10:00:38.847Z,44.97
2022-12-17T10:03:32.996Z,44.35
2022-12-17T10:06:27.723Z,46.00
2022-12-17T10:09:18.721Z,45.15
2022-12-17T10:12:04.028Z,51.47
2022-12-17T10:14:49.487Z,50.50
2022-12-17T10:17:38.098Z,53.10
2022-12-17T10:20:50.211Z,49.28
2022-12-17T10:23:50.108Z,50.70
2022-12-17T10:26:44.224Z,53.65
2022-12-17T10:29:34.749Z,52.20
2022-12-17T10:32:34.471Z,54.42
2022-12-17T10:35:37.416Z,53.42
2022-12-17T10:38:43.191Z,54.88
2022-12-17T10:41:43.467Z,54.15
2022-12-17T10:44:49.760Z,52.40
2022-12-17T10:47:43.221Z,56.13
2022-12-17T10:50:36.574Z,52.47
2022-12-17T10:53:23.549Z,51.85
2022-12-17T10:56:15.035Z,48.65
2022-12-17T10:59:09.660Z,55.25
2022-12-17T11:01:58.215Z,54.95
2022-12-17T11:04:46.404Z,54.38
2022-12-17T11:07:38.499Z,51.40
2022-12-17T11:10:25.355Z,50.63
2022-12-17T11:13:16.225Z,53.40
2022-12-17T11:16:14.428Z,52.97
2022-12-17T11:19:35.299Z,49.83
2022-12-17T11:22:26.113Z,55.45
2022-12-17T11:25:21.608Z,48.65
2022-12-17T11:28:12.216Z,49.42
2022-12-17T11:31:06.775Z,51.72
2022-12-17T11:34:10.706Z,75.80
2022-12-17T11:37:03.736Z,51.25
2022-12-17T11:40:02.187Z,54.78
2022-12-17T11:42:55.469Z,52.03
2022-12-17T11:46:11.641Z,55.80
2022-12-17T11:49:10.704Z,55.45
2022-12-17T11:52:17.428Z,54.55
2022-12-17T11:55:20.501Z,49.40
2022-12-17T11:58:21.689Z,54.92
2022-12-17T12:01:18.687Z,52.85
2022-12-17T12:04:39.478Z,59.85
2022-12-17T12:07:38.993Z,53.13
2022-12-17T12:11:08.166Z,52.88
2022-12-17T12:14:02.702Z,50.65
2022-12-17T12:16:59.620Z,51.28
2022-12-17T12:20:08.286Z,49.92
2022-12-17T12:23:26.318Z,56.97
2022-12-17T12:26:21.884Z,50.72
2022-12-17T12:29:40.737Z,52.17
2022-12-17T12:32:41.636Z,58.40
2022-12-17T12:35:34.259Z,53.13
2022-12-17T12:38:20.443Z,54.70
2022-12-17T12:41:13.769Z,54.40
2022-12-17T12:44:07.082Z,52.58
2022-12-17T12:47:17.233Z,56.72
2022-12-17T12:50:39.191Z,59.33
2022-12-17T12:53:26.247Z,52.13
2022-12-17T12:56:11.317Z,55.95
2022-12-17T12:59:13.363Z,56.90
2022-12-17T13:01:58.795Z,55.95
2022-12-17T13:04:55.382Z,56.80
2022-12-17T13:07:31.053Z,59.05
2022-12-17T13:09:59.106Z,56.33
2022-12-17T13:12:32.743Z,61.35
2022-12-17T13:15:13.338Z,61.92
2022-12-17T13:17:45.963Z,60.55
2022-12-17T13:20:31.764Z,58.10
2022-12-17T13:23:35.737Z,58.45
2022-12-17T13:26:18.811Z,62.97
2022-12-17T13:29:13.220Z,55.97
2022-12-17T13:31:48.229Z,57.15
2022-12-17T13:34:45.108Z,93.40
2022-12-17T13:37:29.417Z,61.70
2022-12-17T13:40:04.932Z,49.22
2022-12-17T13:42:35.370Z,53.08
2022-12-17T13:45:02.683Z,54.42
2022-12-17T13:47:35.218Z,54.25
2022-12-17T13:50:33.815Z,54.25
2022-12-17T13:53:10.442Z,55.63
2022-12-17T13:55:38.212Z,58.60
2022-12-17T13:58:04.672Z,58.75
2022-12-17T14:00:32.435Z,58.22
2022-12-17T14:03:10.177Z,64.65
2022-12-17T14:05:42.258Z,62.92
2022-12-17T14:08:12.728Z,62.88
2022-12-17T14:10:47.421Z,68.57
2022-12-17T14:13:16.000Z,94.60
2022-12-17T14:15:49.856Z,93.57
2022-12-17T14:18:20.703Z,77.82
2022-12-17T14:20:49.386Z,67.70
2022-12-17T14:23:21.766Z,68.72
2022-12-17T14:25:49.152Z,62.58
2022-12-17T14:28:36.735Z,70.53
2022-12-17T14:31:28.857Z,98.90
2022-12-17T14:34:10.869Z,77.82
2022-12-17T14:36:44.556Z,85.90
2022-12-17T14:39:28.636Z,92.95
2022-12-17T14:42:25.527Z,81.45
2022-12-17T14:45:07.773Z,78.07
2022-12-17T14:47:36.806Z,64.35
2022-12-17T14:50:08.655Z,68.72
2022-12-17T14:52:37.492Z,63.03
2022-12-17T14:55:36.911Z,67.38
2022-12-17T14:58:22.959Z,65.57
2022-12-17T15:00:59.868Z,67.75
2022-12-17T15:03:32.879Z,67.05
2022-12-17T15:06:03.421Z,64.60
2022-12-17T15:08:33.515Z,66.32
2022-12-17T15:11:02.314Z,65.82
2022-12-17T15:13:28.848Z,62.35
2022-12-17T15:15:55.332Z,58.70
2022-12-17T15:18:24.190Z,56.35
2022-12-17T15:20:50.721Z,63.75
2022-12-17T15:23:19.779Z,66.68
2022-12-17T15:25:48.435Z,58.90
2022-12-17T15:28:15.982Z,63.22
2022-12-17T15:30:43.007Z,64.60
2022-12-17T15:33:12.332Z,62.45
2022-12-17T15:35:40.997Z,70.53
2022-12-17T15:38:11.725Z,68.28
2022-12-17T15:40:38.976Z,76.97
2022-12-17T15:43:11.515Z,93.82
2022-12-17T15:45:43.575Z,86.77
2022-12-17T15:48:11.306Z,84.68
2022-12-17T15:50:37.994Z,70.75
2022-12-17T15:53:06.753Z,73.85
2022-12-17T15:55:33.641Z,75.50
2022-12-17T15:58:00.096Z,72.85
2022-12-17T16:00:26.687Z,71.40
2022-12-17T16:02:53.573Z,88.28
2022-12-17T16:05:20.912Z,84.75
2022-12-17T16:07:47.633Z,87.30
2022-12-17T16:10:16.506Z,83.45
2022-12-17T16:12:43.236Z,80.10
2022-12-17T16:15:11.724Z,79.47
2022-12-17T16:17:38.528Z,86.82
2022-12-17T16:20:06.020Z,84.15
2022-12-17T16:22:32.819Z,88.22
2022-12-17T16:24:59.304Z,78.18
2022-12-17T16:27:25.995Z,80.88
2022-12-17T16:29:52.493Z,81.78
2022-12-17T16:32:21.289Z,81.00
2022-12-17T16:34:47.733Z,84.22
2022-12-17T16:37:14.239Z,79.95
2022-12-17T16:39:40.683Z,83.10
2022-12-17T16:42:09.865Z,88.13
2022-12-17T16:44:36.347Z,86.72
2022-12-17T16:47:03.071Z,86.35
2022-12-17T16:49:29.630Z,105.40
2022-12-17T16:51:57.883Z,100.32
2022-12-17T16:54:27.104Z,99.03
2022-12-17T16:56:56.535Z,97.68
2022-12-17T16:59:23.673Z,95.20
2022-12-17T17:01:52.189Z,97.82
2022-12-17T17:04:24.073Z,100.28
2022-12-17T17:06:53.615Z,101.18
2022-12-17T17:09:21.065Z,94.63
2022-12-17T17:11:52.083Z,99.05
2022-12-17T17:14:19.178Z,95.43
2022-12-17T17:16:45.804Z,100.82
2022-12-17T17:19:12.287Z,108.50
2022-12-17T17:21:41.022Z,103.70
2022-12-17T17:24:20.001Z,106.88
2022-12-17T17:26:48.099Z,106.05
2022-12-17T17:29:14.673Z,117.22
2022-12-17T17:34:27.646Z,148.15
2022-12-17T17:36:54.123Z,127.32
2022-12-17T17:39:23.094Z,118.35
2022-12-17T17:41:49.590Z,125.57
2022-12-17T17:44:16.589Z,126.03
2022-12-17T17:46:43.248Z,118.97
2022-12-17T17:49:10.564Z,114.10
2022-12-17T17:54:27.727Z,94.57
2022-12-17T17:56:54.215Z,97.47
2022-12-17T17:59:20.728Z,92.43
2022-12-17T18:01:51.899Z,84.15
2022-12-17T18:04:21.304Z,81.13
2022-12-17T18:07:23.102Z,80.35
2022-12-17T18:09:35.210Z,79.40
2022-12-17T18:12:24.629Z,81.88
2022-12-17T18:15:13.809Z,78.03
2022-12-17T18:17:37.601Z,81.35
2022-12-17T18:20:07.182Z,86.63
2022-12-17T18:22:33.670Z,93.38
2022-12-17T18:25:00.171Z,92.32
2022-12-17T18:27:26.685Z,91.22
2022-12-17T18:29:53.137Z,86.13
2022-12-17T18:32:22.435Z,84.22
2022-12-17T18:34:48.929Z,109.40
2022-12-17T18:37:15.489Z,94.75
2022-12-17T18:39:41.955Z,93.82
2022-12-17T18:42:27.505Z,92.00
2022-12-17T18:44:53.955Z,118.63
2022-12-17T18:47:20.621Z,113.22
2022-12-17T18:49:47.173Z,92.03
2022-12-17T18:52:16.955Z,111.40
2022-12-17T18:54:44.831Z,102.93
2022-12-17T18:57:11.456Z,72.93
2022-12-17T18:59:38.501Z,71.00
2022-12-17T19:02:05.337Z,77.38
2022-12-17T19:04:33.028Z,71.47
2022-12-17T19:06:59.845Z,72.72
2022-12-17T19:09:35.510Z,75.30
2022-12-17T19:12:04.103Z,73.72
2022-12-17T19:14:30.598Z,83.35
2022-12-17T19:16:57.978Z,79.57
2022-12-17T19:19:28.947Z,77.45
2022-12-17T19:21:56.247Z,85.65
2022-12-17T19:24:23.384Z,75.53
2022-12-17T19:26:50.959Z,81.15
2022-12-17T19:29:19.016Z,152.73
2022-12-17T19:31:46.342Z,99.88
2022-12-17T19:34:16.580Z,88.43
2022-12-17T19:36:44.240Z,346.25
2022-12-17T19:39:13.122Z,167.45
2022-12-17T19:41:40.156Z,149.68
2022-12-17T19:44:08.850Z,115.57
2022-12-17T19:46:36.173Z,75.90
2022-12-17T19:49:03.752Z,80.38
2022-12-17T19:51:31.994Z,69.53
2022-12-17T19:54:06.192Z,84.50
2022-12-17T19:56:34.928Z,71.10
2022-12-17T19:59:04.211Z,90.35
2022-12-17T20:01:40.997Z,109.07
2022-12-17T20:04:12.088Z,91.65
2022-12-17T20:06:38.684Z,117.18
2022-12-17T20:09:06.389Z,102.03
2022-12-17T20:11:36.456Z,107.60
2022-12-17T20:14:26.438Z,109.25
2022-12-17T20:16:57.170Z,212.90
2022-12-17T20:19:31.091Z,187.57
2022-12-17T20:21:59.653Z,133.32
2022-12-17T20:24:31.078Z,155.02
2022-12-17T20:26:58.510Z,137.82
2022-12-17T20:29:25.329Z,108.18
2022-12-17T20:31:53.379Z,80.35
2022-12-17T20:34:24.415Z,78.40
2022-12-17T20:36:52.168Z,75.28
2022-12-17T20:39:26.642Z,69.80
2022-12-17T20:41:56.984Z,74.50
2022-12-17T20:44:26.321Z,97.30
2022-12-17T20:46:53.230Z,231.55
2022-12-17T20:49:20.138Z,148.15
2022-12-17T20:51:46.867Z,98.63
2022-12-17T20:54:13.444Z,163.30
2022-12-17T20:56:42.479Z,139.93
2022-12-17T20:59:14.085Z,113.80
2022-12-17T21:01:43.449Z,232.73
2022-12-17T21:04:12.403Z,73.10
2022-12-17T21:06:49.809Z,109.20
2022-12-17T21:09:18.610Z,130.05
2022-12-17T21:11:45.181Z,120.57
2022-12-17T21:14:14.579Z,103.32
2022-12-17T21:16:43.048Z,111.00
2022-12-17T21:19:13.114Z,86.82
2022-12-17T21:21:39.763Z,129.88
2022-12-17T21:24:08.167Z,130.43
2022-12-17T21:26:39.731Z,109.97
2022-12-17T21:29:08.086Z,111.45
2022-12-17T21:31:38.876Z,90.15
2022-12-17T21:34:10.846Z,84.43
2022-12-17T21:36:37.609Z,95.97
2022-12-17T21:39:09.019Z,113.30
2022-12-17T21:41:43.376Z,88.72
2022-12-17T21:44:15.137Z,69.82
2022-12-17T21:46:42.869Z,79.13
2022-12-17T21:49:10.516Z,69.80
2022-12-17T21:51:37.739Z,64.75
2022-12-17T21:54:09.023Z,71.65
2022-12-17T21:56:36.838Z,65.65
2022-12-17T21:59:04.188Z,71.90
2022-12-17T22:01:33.622Z,72.80
2022-12-17T22:04:02.655Z,68.72
2022-12-17T22:06:36.369Z,70.43
2022-12-17T22:09:18.014Z,65.80
2022-12-17T22:12:14.127Z,62.85
2022-12-17T22:14:43.389Z,67.15
2022-12-17T22:17:10.025Z,64.15
2022-12-17T22:19:36.749Z,66.93
2022-12-17T22:22:03.559Z,68.03
2022-12-17T22:24:36.455Z,66.85
2022-12-17T22:27:03.895Z,62.97
2022-12-17T22:29:53.663Z,64.22
2022-12-17T22:32:38.959Z,65.93
2022-12-17T22:36:16.663Z,60.65
2022-12-17T22:41:02.868Z,67.25
2022-12-17T22:42:03.345Z,97.30
2022-12-17T22:44:51.320Z,65.97
2022-12-17T22:46:19.012Z,70.30
2022-12-17T22:48:45.667Z,69.25
2022-12-17T22:51:13.434Z,72.07
2022-12-17T22:53:54.223Z,69.68
2022-12-17T22:56:58.465Z,72.72
2022-12-17T22:59:10.248Z,67.03
2022-12-17T23:01:36.951Z,69.05
2022-12-17T23:04:06.063Z,73.50
2022-12-17T23:06:35.191Z,72.63
2022-12-17T23:09:01.765Z,67.07
2022-12-17T23:11:29.026Z,72.03
2022-12-17T23:13:56.169Z,73.00
2022-12-17T23:16:23.069Z,72.78
2022-12-17T23:18:51.279Z,71.65
2022-12-17T23:21:25.696Z,68.97
2022-12-17T23:23:53.940Z,69.25
2022-12-17T23:26:23.969Z,70.50
2022-12-17T23:28:57.217Z,68.57
2022-12-17T23:31:27.117Z,68.07
2022-12-17T23:33:56.450Z,62.83
2022-12-17T23:36:24.922Z,69.82
2022-12-17T23:38:56.507Z,62.03
2022-12-17T23:41:26.953Z,65.15
2022-12-17T23:43:55.111Z,66.18
2022-12-17T23:46:23.794Z,63.25
2022-12-17T23:48:51.032Z,68.35
2022-12-17T23:51:20.327Z,63.60
2022-12-17T23:53:47.309Z,71.97
2022-12-17T23:56:18.992Z,61.67
2022-12-17T23:58:46.640Z,58.63
